»·PEaware :: N3783N KTLR-O24

N3783N :: KTLR-O24

FLIGHT INFORMATION

Flight Status: Arrived
Operator: Privately registered:
United States
More flights under this callsign
Pilot: Lauren G. (5641)
Aircraft: CESSNA 172 SKYHAWK
(C172)
More flights by this aircraft type
Origin: KTLR Mefford
United States
Destination: O24 Lee Vining
United States
More flights between these airports :: More routes between these airports
Route: FRA
File this flight plan on PilotEdge
Remarks:
Altitude:
(Current/Filed)
13,500ft
Speed:
(Current/Filed)
120kts
Departed: 22-May-17 12:38 PM
Arrived: 22-May-17 01:42 PM
Distance/Time
Traveled:
108nm/1:03
Distance/Time
To Go:
Arrived

Flight Plot

Page will automatically refresh every two minutes.

Flight plan parsing failed; only flown route is shown


Map Options




Map Legend


Flown Route
Filed Route
Departure Airport
Arrival Airport
Navaid (VOR, NDB)
Fix

Horizontal Profiles

Position Reports

Time Latitude Longitude Heading Altitude Ground
Speed
22-May-17 12:34 36.160434 -119.330003 147 274ft 0kts
22-May-17 12:35 36.160434 -119.330003 147 274ft 0kts
22-May-17 12:36 36.160434 -119.330003 147 274ft 0kts
22-May-17 12:37 36.160434 -119.330003 147 274ft 0kts
22-May-17 12:38 36.160434 -119.330003 147 274ft 0kts
22-May-17 12:39 36.160434 -119.330003 147 274ft 0kts
22-May-17 12:40 36.156662 -119.326901 147 309ft 80kts
22-May-17 12:41 36.159336 -119.304183 13 1406ft 89kts
22-May-17 12:42 36.179005 -119.319076 311 2321ft 86kts
22-May-17 12:43 36.198487 -119.336012 333 3272ft 92kts
22-May-17 12:44 36.224118 -119.346276 343 4121ft 102kts
22-May-17 12:45 36.252221 -119.355127 345 4980ft 105kts
22-May-17 12:46 36.280508 -119.363337 346 5828ft 104kts
22-May-17 12:47 36.308406 -119.371222 346 6675ft 102kts
22-May-17 12:48 36.335806 -119.378910 346 7525ft 100kts
22-May-17 12:49 36.362441 -119.386405 346 8371ft 96kts
22-May-17 12:50 36.389634 -119.393970 346 9062ft 105kts
22-May-17 12:51 36.418541 -119.402013 345 9720ft 107kts
22-May-17 12:52 36.447554 -119.410221 343 10372ft 106kts
22-May-17 12:53 36.475761 -119.420479 338 11024ft 104kts
22-May-17 12:54 36.502145 -119.433186 332 11670ft 100kts
22-May-17 12:55 36.526680 -119.448437 325 12321ft 97kts
22-May-17 12:56 36.551559 -119.458887 14 12844ft 108kts
22-May-17 12:57 36.581639 -119.454037 354 13307ft 110kts
22-May-17 12:58 36.613282 -119.458472 346 13459ft 125kts
22-May-17 12:59 36.648730 -119.467000 344 13455ft 132kts
22-May-17 13:00 36.684719 -119.476755 344 13455ft 133kts
22-May-17 13:01 36.715184 -119.485251 343 13455ft 136kts
22-May-17 13:02 36.758279 -119.497368 343 13455ft 136kts
22-May-17 13:03 36.792590 -119.507046 343 13455ft 136kts
22-May-17 13:04 36.829521 -119.517479 343 13463ft 136kts
22-May-17 13:05 36.860278 -119.526176 343 13464ft 136kts
22-May-17 13:06 36.903472 -119.538402 343 13464ft 136kts
22-May-17 13:07 36.934342 -119.547149 344 13464ft 136kts
22-May-17 13:08 36.971140 -119.557570 344 13464ft 135kts
22-May-17 13:09 37.013732 -119.569651 344 13464ft 134kts
22-May-17 13:10 37.043815 -119.578197 344 13464ft 133kts
22-May-17 13:11 37.079694 -119.588399 344 13464ft 131kts
22-May-17 13:12 37.113144 -119.589193 20 13463ft 131kts
22-May-17 13:13 37.151566 -119.568445 22 13463ft 129kts
22-May-17 13:14 37.178661 -119.553242 22 13463ft 128kts
22-May-17 13:15 37.211067 -119.534888 22 13501ft 126kts
22-May-17 13:16 37.241807 -119.517413 22 13697ft 117kts
22-May-17 13:17 37.271539 -119.500510 21 13816ft 120kts
22-May-17 13:18 37.302958 -119.482707 24 13814ft 128kts
22-May-17 13:19 37.335936 -119.463964 30 13817ft 130kts
22-May-17 13:20 37.368175 -119.445453 29 13815ft 124kts
22-May-17 13:21 37.399607 -119.427461 29 13816ft 124kts
22-May-17 13:22 37.430860 -119.409595 28 13818ft 124kts
22-May-17 13:23 37.462291 -119.391619 28 13815ft 123kts
22-May-17 13:24 37.493357 -119.373794 28 13817ft 122kts
22-May-17 13:25 37.524111 -119.356168 29 13816ft 121kts
22-May-17 13:26 37.555048 -119.338395 28 13817ft 122kts
22-May-17 13:27 37.585923 -119.320708 27 13817ft 124kts
22-May-17 13:28 37.617152 -119.302721 28 13817ft 123kts
22-May-17 13:29 37.648199 -119.284838 28 13818ft 122kts
22-May-17 13:30 37.678971 -119.267143 28 13816ft 120kts
22-May-17 13:31 37.709251 -119.249696 29 13814ft 119kts
22-May-17 13:32 37.739502 -119.232183 30 13815ft 120kts
22-May-17 13:33 37.769844 -119.214680 29 13816ft 119kts
22-May-17 13:34 37.799659 -119.197451 30 13817ft 116kts
22-May-17 13:35 37.828963 -119.180460 30 13816ft 115kts
22-May-17 13:36 37.859403 -119.159882 39 13642ft 135kts
22-May-17 13:37 37.890550 -119.130795 40 13152ft 142kts
22-May-17 13:38 37.923159 -119.098605 39 12224ft 154kts
22-May-17 13:39 37.959024 -119.072488 348 11177ft 154kts
22-May-17 13:40 37.999601 -119.081951 348 10087ft 136kts
22-May-17 13:41 38.009765 -119.116022 243 8951ft 124kts
22-May-17 13:42 37.980409 -119.114680 163 7671ft 100kts
22-May-17 13:43 37.959491 -119.106536 162 6804ft 44kts
22-May-17 13:44 37.952982 -119.103861 165 6805ft 11kts
22-May-17 13:45 37.953585 -119.104680 33 6804ft 3kts
22-May-17 13:46 37.953707 -119.104786 250 6804ft 0kts

Navigation Log

Ident Type
Flight plan parsing failed, navigation log unavailable